createdAt,value
2017-12-03T00:00:28.007Z,28.58
2017-12-03T00:02:56.153Z,29.42
2017-12-03T00:05:24.324Z,31.05
2017-12-03T00:07:52.456Z,29.77
2017-12-03T00:10:20.758Z,28.73
2017-12-03T00:12:48.895Z,31.10
2017-12-03T00:15:17.805Z,32.13
2017-12-03T00:17:45.980Z,33.03
2017-12-03T00:20:14.131Z,32.15
2017-12-03T00:22:42.321Z,33.08
2017-12-03T00:25:10.468Z,33.08
2017-12-03T00:27:39.369Z,33.80
2017-12-03T00:30:08.433Z,31.02
2017-12-03T00:32:36.582Z,33.30
2017-12-03T00:35:05.463Z,30.95
2017-12-03T00:37:34.388Z,30.73
2017-12-03T00:40:02.528Z,32.30
2017-12-03T00:42:30.707Z,32.63
2017-12-03T00:44:58.843Z,30.25
2017-12-03T00:47:27.917Z,29.50
2017-12-03T00:49:56.057Z,28.87
2017-12-03T00:52:24.173Z,29.40
2017-12-03T00:54:53.124Z,30.33
2017-12-03T00:57:21.252Z,28.90
2017-12-03T00:59:49.425Z,26.58
2017-12-03T01:02:17.563Z,30.17
2017-12-03T01:04:45.712Z,30.50
2017-12-03T01:07:13.996Z,29.50
2017-12-03T01:09:42.140Z,28.38
2017-12-03T01:12:10.276Z,29.45
2017-12-03T01:14:39.213Z,30.30
2017-12-03T01:17:07.380Z,29.20
2017-12-03T01:19:35.555Z,28.33
2017-12-03T01:22:03.684Z,26.80
2017-12-03T01:24:32.586Z,27.50
2017-12-03T01:27:01.672Z,28.12
2017-12-03T01:29:30.577Z,29.58
2017-12-03T01:31:59.489Z,29.27
2017-12-03T01:34:27.659Z,27.70
2017-12-03T01:36:55.796Z,29.10
2017-12-03T01:39:23.952Z,28.92
2017-12-03T01:41:52.116Z,27.87
2017-12-03T01:44:20.250Z,28.80
2017-12-03T01:46:48.528Z,31.35
2017-12-03T01:49:16.665Z,30.25
2017-12-03T01:51:45.608Z,31.08
2017-12-03T01:54:13.744Z,29.67
2017-12-03T01:56:42.669Z,30.88
2017-12-03T01:59:10.846Z,28.75
2017-12-03T02:01:38.967Z,28.85
2017-12-03T02:04:08.038Z,28.62
2017-12-03T02:06:36.177Z,28.67
2017-12-03T02:09:04.356Z,25.83
2017-12-03T02:11:32.499Z,27.83
2017-12-03T02:14:01.413Z,28.20
2017-12-03T02:16:29.617Z,29.98
2017-12-03T02:18:57.746Z,27.15
2017-12-03T02:21:26.069Z,26.65
2017-12-03T02:23:54.205Z,26.67
2017-12-03T02:26:22.339Z,26.48
2017-12-03T02:28:50.505Z,23.45
2017-12-03T02:31:18.666Z,25.95
2017-12-03T02:33:46.848Z,25.48
2017-12-03T02:36:14.987Z,27.30
2017-12-03T02:38:43.284Z,27.73
2017-12-03T02:41:11.420Z,26.85
2017-12-03T02:43:39.559Z,27.02
2017-12-03T02:46:07.711Z,29.00
2017-12-03T02:48:35.864Z,24.45
2017-12-03T02:51:04.030Z,26.62
2017-12-03T02:53:32.168Z,24.55
2017-12-03T02:56:01.073Z,27.10
2017-12-03T02:58:29.344Z,24.37
2017-12-03T03:00:57.483Z,26.08
2017-12-03T03:03:25.622Z,26.45
2017-12-03T03:05:53.795Z,26.92
2017-12-03T03:08:21.923Z,28.87
2017-12-03T03:10:50.853Z,27.65
2017-12-03T03:13:19.002Z,25.12
2017-12-03T03:15:47.304Z,27.05
2017-12-03T03:18:15.436Z,25.88
2017-12-03T03:20:44.345Z,26.87
2017-12-03T03:23:12.499Z,28.00
2017-12-03T03:25:41.429Z,27.62
2017-12-03T03:28:09.610Z,28.27
2017-12-03T03:30:37.750Z,26.90
2017-12-03T03:33:05.892Z,26.02
2017-12-03T03:35:34.162Z,25.17
2017-12-03T03:38:02.296Z,27.62
2017-12-03T03:40:30.468Z,27.70
2017-12-03T03:42:58.604Z,25.85
2017-12-03T03:45:27.509Z,29.10
2017-12-03T03:47:55.676Z,26.65
2017-12-03T03:50:24.580Z,25.80
2017-12-03T03:52:52.897Z,27.67
2017-12-03T03:55:21.048Z,27.77
2017-12-03T03:57:49.187Z,30.25
2017-12-03T04:00:17.349Z,28.23
2017-12-03T04:02:46.260Z,28.00
2017-12-03T04:05:14.451Z,25.60
2017-12-03T04:07:42.588Z,29.15
2017-12-03T04:10:11.506Z,28.90
2017-12-03T04:12:39.700Z,27.42
2017-12-03T04:15:07.832Z,27.87
2017-12-03T04:17:36.787Z,28.40
2017-12-03T04:20:04.944Z,29.05
2017-12-03T04:22:33.093Z,26.52
2017-12-03T04:25:01.253Z,29.77
2017-12-03T04:27:30.148Z,30.08
2017-12-03T04:29:58.427Z,28.77
2017-12-03T04:32:26.587Z,26.90
2017-12-03T04:34:55.491Z,27.23
2017-12-03T04:37:23.659Z,29.15
2017-12-03T04:39:51.808Z,29.83
2017-12-03T04:42:19.942Z,27.33
2017-12-03T04:44:48.111Z,28.92
2017-12-03T04:47:16.257Z,28.52
2017-12-03T04:49:44.396Z,28.20
2017-12-03T04:52:12.674Z,26.58
2017-12-03T04:54:40.808Z,26.12
2017-12-03T04:57:08.975Z,27.30
2017-12-03T04:59:37.116Z,28.20
2017-12-03T05:02:06.020Z,27.27
2017-12-03T05:04:34.188Z,29.45
2017-12-03T05:07:02.345Z,26.42
2017-12-03T05:09:31.404Z,27.00
2017-12-03T05:11:59.553Z,26.60
2017-12-03T05:14:27.700Z,26.08
2017-12-03T05:16:55.881Z,26.75
2017-12-03T05:19:24.019Z,30.05
2017-12-03T05:21:52.208Z,27.30
2017-12-03T05:24:21.136Z,26.65
2017-12-03T05:26:49.281Z,27.50
2017-12-03T05:29:26.100Z,26.95
2017-12-03T05:32:01.749Z,27.45
2017-12-03T05:34:37.620Z,28.15
2017-12-03T05:37:05.884Z,26.45
2017-12-03T05:42:06.888Z,28.03
2017-12-03T05:44:35.788Z,28.73
2017-12-03T05:47:04.073Z,28.58
2017-12-03T05:49:32.212Z,26.45
2017-12-03T05:52:00.356Z,27.60
2017-12-03T05:54:28.530Z,27.58
2017-12-03T05:56:56.663Z,24.65
2017-12-03T05:59:24.800Z,26.87
2017-12-03T06:01:53.104Z,26.20
2017-12-03T06:04:21.251Z,27.20
2017-12-03T06:06:49.400Z,25.48
2017-12-03T06:09:17.567Z,26.30
2017-12-03T06:11:45.700Z,25.50
2017-12-03T06:14:13.840Z,27.08
2017-12-03T06:16:42.042Z,28.08
2017-12-03T06:19:10.210Z,27.37
2017-12-03T06:21:39.104Z,24.80
2017-12-03T06:24:08.148Z,26.98
2017-12-03T06:26:36.288Z,27.02
2017-12-03T06:29:04.456Z,27.80
2017-12-03T06:31:32.612Z,26.30
2017-12-03T06:34:01.536Z,27.37
2017-12-03T06:36:29.720Z,26.33
2017-12-03T06:38:58.020Z,24.37
2017-12-03T06:41:26.182Z,27.40
2017-12-03T06:43:54.364Z,28.77
2017-12-03T06:46:22.480Z,27.62
2017-12-03T06:48:51.431Z,26.75
2017-12-03T06:51:19.570Z,25.95
2017-12-03T06:53:47.718Z,25.80
2017-12-03T06:56:16.768Z,28.55
2017-12-03T06:58:44.950Z,27.00
2017-12-03T07:01:13.135Z,30.55
2017-12-03T07:03:41.273Z,29.35
2017-12-03T07:06:09.428Z,27.23
2017-12-03T07:08:37.564Z,26.70
2017-12-03T07:11:06.648Z,27.23
2017-12-03T07:13:34.785Z,25.42
2017-12-03T07:16:02.941Z,27.73
2017-12-03T07:18:31.109Z,29.40
2017-12-03T07:20:59.249Z,26.55
2017-12-03T07:23:27.408Z,28.35
2017-12-03T07:25:55.568Z,28.35
2017-12-03T07:28:23.721Z,28.02
2017-12-03T07:30:51.845Z,28.27
2017-12-03T07:33:20.904Z,26.35
2017-12-03T07:35:49.029Z,28.48
2017-12-03T07:38:17.173Z,27.27
2017-12-03T07:40:45.370Z,26.35
2017-12-03T07:43:14.282Z,29.10
2017-12-03T07:45:42.410Z,27.27
2017-12-03T07:48:11.352Z,30.65
2017-12-03T07:50:39.513Z,27.50
2017-12-03T07:53:07.638Z,28.42
2017-12-03T07:55:35.836Z,28.48
2017-12-03T07:58:03.964Z,26.52
2017-12-03T08:00:32.109Z,27.40
2017-12-03T08:03:00.387Z,27.40
2017-12-03T08:05:28.536Z,27.17
2017-12-03T08:07:57.471Z,28.65
2017-12-03T08:10:25.642Z,27.13
2017-12-03T08:12:53.833Z,27.83
2017-12-03T08:15:21.973Z,29.70
2017-12-03T08:17:50.129Z,26.60
2017-12-03T08:20:19.076Z,25.85
2017-12-03T08:22:47.237Z,28.35
2017-12-03T08:25:15.369Z,27.20
2017-12-03T08:27:43.649Z,27.85
2017-12-03T08:30:12.548Z,27.23
2017-12-03T08:32:40.728Z,32.42
2017-12-03T08:35:08.911Z,33.30
2017-12-03T08:37:37.075Z,30.48
2017-12-03T08:40:05.218Z,30.15
2017-12-03T08:42:34.136Z,31.10
2017-12-03T08:45:02.330Z,31.73
2017-12-03T08:47:30.488Z,31.30
2017-12-03T08:49:58.765Z,22.67
2017-12-03T08:52:26.924Z,21.05
2017-12-03T08:54:55.810Z,19.50
2017-12-03T08:57:24.733Z,16.23
2017-12-03T08:59:52.870Z,16.02
2017-12-03T09:02:21.816Z,16.55
2017-12-03T09:04:49.953Z,16.85
2017-12-03T09:07:18.092Z,17.60
2017-12-03T09:09:46.287Z,15.63
2017-12-03T09:12:14.440Z,15.10
2017-12-03T09:14:43.399Z,15.82
2017-12-03T09:17:11.578Z,16.40
2017-12-03T09:19:39.705Z,15.93
2017-12-03T09:22:07.975Z,16.23
2017-12-03T09:24:36.879Z,16.70
2017-12-03T09:27:05.020Z,15.57
2017-12-03T09:29:54.649Z,13.50
2017-12-03T09:32:41.787Z,15.98
2017-12-03T09:35:09.961Z,14.85
2017-12-03T09:37:38.094Z,13.20
2017-12-03T09:40:06.237Z,15.50
2017-12-03T09:42:35.198Z,14.80
2017-12-03T09:45:03.345Z,13.90
2017-12-03T09:47:31.630Z,14.27
2017-12-03T09:49:59.780Z,14.73
2017-12-03T09:52:27.928Z,14.10
2017-12-03T09:54:56.887Z,15.15
2017-12-03T09:57:25.036Z,14.82
2017-12-03T09:59:53.334Z,15.88
2017-12-03T10:02:21.465Z,15.07
2017-12-03T10:04:49.600Z,15.43
2017-12-03T10:07:17.765Z,16.52
2017-12-03T10:09:45.915Z,15.52
2017-12-03T10:12:14.080Z,14.60
2017-12-03T10:14:42.216Z,13.80
2017-12-03T10:17:11.149Z,16.17
2017-12-03T10:19:39.454Z,16.75
2017-12-03T10:22:07.609Z,14.45
2017-12-03T10:24:35.754Z,14.95
2017-12-03T10:27:03.910Z,14.30
2017-12-03T10:29:32.121Z,14.20
2017-12-03T10:32:00.262Z,14.00
2017-12-03T10:34:29.208Z,16.60
2017-12-03T10:36:57.400Z,17.98
2017-12-03T10:39:25.547Z,15.32
2017-12-03T10:41:53.840Z,15.52
2017-12-03T10:44:21.984Z,15.25
2017-12-03T10:46:50.175Z,15.80
2017-12-03T10:49:18.328Z,15.75
2017-12-03T10:51:46.469Z,16.05
2017-12-03T10:54:14.784Z,15.35
2017-12-03T10:56:43.693Z,16.20
2017-12-03T10:59:11.932Z,14.00
2017-12-03T11:01:40.812Z,16.12
2017-12-03T11:04:08.952Z,16.00
2017-12-03T11:06:37.117Z,14.45
2017-12-03T11:09:05.320Z,13.50
2017-12-03T11:11:34.293Z,15.07
2017-12-03T11:14:02.590Z,13.73
2017-12-03T11:16:30.809Z,14.20
2017-12-03T11:18:59.053Z,14.65
2017-12-03T11:21:53.863Z,14.95
2017-12-03T11:27:30.148Z,13.02
2017-12-03T11:29:58.296Z,15.10
2017-12-03T11:32:26.614Z,15.82
2017-12-03T11:34:55.419Z,15.20
2017-12-03T11:37:23.564Z,15.18
2017-12-03T11:39:51.725Z,14.52
2017-12-03T11:42:19.890Z,14.80
2017-12-03T11:44:48.089Z,15.48
2017-12-03T11:47:16.236Z,15.32
2017-12-03T11:49:44.383Z,16.00
2017-12-03T11:52:13.433Z,15.75
2017-12-03T11:54:41.573Z,16.27
2017-12-03T11:57:09.753Z,14.68
2017-12-03T11:59:37.913Z,14.23
2017-12-03T12:02:06.822Z,14.32
2017-12-03T12:04:35.142Z,14.98
2017-12-03T12:07:03.296Z,13.68
2017-12-03T12:09:31.438Z,15.50
2017-12-03T12:11:59.625Z,15.82
2017-12-03T12:14:27.821Z,14.77
2017-12-03T12:16:56.021Z,16.15
2017-12-03T12:19:24.150Z,14.40
2017-12-03T12:21:52.301Z,15.50
2017-12-03T12:24:21.244Z,14.87
2017-12-03T12:26:49.389Z,14.93
2017-12-03T12:29:17.562Z,15.63
2017-12-03T12:31:45.698Z,14.52
2017-12-03T12:34:17.095Z,15.65
2017-12-03T12:36:45.270Z,16.02
2017-12-03T12:39:13.563Z,14.93
2017-12-03T12:41:41.743Z,15.30
2017-12-03T12:44:09.912Z,14.90
2017-12-03T12:46:38.048Z,14.40
2017-12-03T12:49:06.219Z,13.23
2017-12-03T12:51:34.384Z,14.57
2017-12-03T12:54:02.528Z,14.68
2017-12-03T12:56:31.437Z,15.05
2017-12-03T12:58:59.644Z,15.75
2017-12-03T13:01:27.799Z,14.32
2017-12-03T13:03:55.995Z,15.38
2017-12-03T13:06:24.113Z,14.98
2017-12-03T13:08:53.021Z,14.82
2017-12-03T13:11:22.078Z,13.05
2017-12-03T13:13:50.233Z,16.45
2017-12-03T13:16:18.465Z,14.05
2017-12-03T13:18:47.377Z,16.30
2017-12-03T13:21:15.518Z,14.90
2017-12-03T13:23:44.457Z,14.23
2017-12-03T13:26:13.368Z,17.05
2017-12-03T13:28:41.650Z,18.42
2017-12-03T13:31:09.825Z,15.18
2017-12-03T13:33:37.978Z,17.80
2017-12-03T13:36:06.167Z,18.35
2017-12-03T13:38:34.305Z,16.15
2017-12-03T13:41:03.229Z,17.12
2017-12-03T13:43:36.501Z,27.05
2017-12-03T13:46:04.703Z,19.17
2017-12-03T13:48:32.872Z,18.00
2017-12-03T13:51:01.072Z,15.82
2017-12-03T13:53:29.986Z,16.58
2017-12-03T13:55:58.133Z,21.00
2017-12-03T13:58:27.085Z,20.90
2017-12-03T14:00:55.216Z,17.70
2017-12-03T14:03:24.324Z,17.87
2017-12-03T14:05:53.228Z,17.17
2017-12-03T14:08:21.382Z,17.10
2017-12-03T14:10:49.553Z,18.83
2017-12-03T14:13:17.770Z,19.33
2017-12-03T14:15:46.034Z,20.80
2017-12-03T14:18:14.248Z,20.17
2017-12-03T14:20:42.427Z,17.75
2017-12-03T14:23:10.592Z,18.27
2017-12-03T14:25:39.402Z,18.77
2017-12-03T14:28:08.310Z,18.27
2017-12-03T14:30:36.532Z,18.02
2017-12-03T14:33:04.689Z,19.25
2017-12-03T14:35:32.836Z,19.08
2017-12-03T14:38:01.232Z,17.40
2017-12-03T14:40:29.373Z,16.60
2017-12-03T14:46:07.121Z,17.25
2017-12-03T14:48:35.303Z,18.37
2017-12-03T14:51:03.453Z,17.98
2017-12-03T14:53:31.676Z,18.35
2017-12-03T14:55:59.867Z,17.15
2017-12-03T14:58:28.035Z,16.75
2017-12-03T15:00:56.228Z,19.20
2017-12-03T15:03:24.368Z,19.05
2017-12-03T15:05:52.560Z,17.95
2017-12-03T15:08:20.805Z,18.20
2017-12-03T15:10:48.941Z,20.17
2017-12-03T15:13:17.093Z,19.85
2017-12-03T15:15:46.123Z,19.92
2017-12-03T15:18:14.257Z,21.30
2017-12-03T15:20:42.407Z,19.58
2017-12-03T15:23:10.596Z,19.05
2017-12-03T15:25:39.511Z,19.50
2017-12-03T15:28:08.540Z,18.45
2017-12-03T15:30:37.440Z,19.10
2017-12-03T15:33:05.581Z,18.45
2017-12-03T15:35:33.756Z,18.00
2017-12-03T15:38:02.646Z,18.33
2017-12-03T15:40:30.807Z,22.20
2017-12-03T15:42:59.736Z,21.70
2017-12-03T15:45:27.874Z,22.13
2017-12-03T15:47:56.093Z,19.80
2017-12-03T15:50:24.243Z,20.42
2017-12-03T15:52:52.386Z,25.27
2017-12-03T15:55:21.328Z,27.73
2017-12-03T15:58:38.173Z,21.50
2017-12-03T16:01:06.445Z,23.50
2017-12-03T16:03:34.616Z,22.08
2017-12-03T16:08:44.780Z,21.48
2017-12-03T16:11:13.621Z,19.58
2017-12-03T16:13:41.794Z,20.67
2017-12-03T16:16:10.022Z,19.60
2017-12-03T16:18:38.280Z,20.25
2017-12-03T16:21:06.432Z,21.45
2017-12-03T16:23:34.571Z,20.30
2017-12-03T16:26:03.517Z,21.60
2017-12-03T16:28:31.660Z,20.60
2017-12-03T16:30:59.829Z,20.60
2017-12-03T16:33:28.002Z,18.58
2017-12-03T16:35:57.202Z,18.62
2017-12-03T16:38:25.359Z,19.23
2017-12-03T16:40:54.332Z,23.58
2017-12-03T16:43:22.496Z,22.17
2017-12-03T16:45:50.709Z,27.87
2017-12-03T16:48:19.617Z,28.83
2017-12-03T16:50:47.803Z,28.58
2017-12-03T16:53:16.829Z,27.23
2017-12-03T16:55:45.710Z,24.45
2017-12-03T16:58:28.853Z,21.20
2017-12-03T17:00:57.062Z,20.65
2017-12-03T17:03:31.567Z,19.83
2017-12-03T17:06:10.756Z,20.77
2017-12-03T17:08:41.991Z,21.52
2017-12-03T17:11:10.187Z,24.48
2017-12-03T17:13:38.903Z,22.85
2017-12-03T17:16:10.106Z,21.20
2017-12-03T17:18:44.963Z,22.02
2017-12-03T17:21:25.699Z,21.83
2017-12-03T17:23:53.865Z,20.12
2017-12-03T17:26:22.877Z,21.80
2017-12-03T17:28:59.962Z,21.02
2017-12-03T17:31:28.294Z,19.92
2017-12-03T17:33:57.194Z,21.80
2017-12-03T17:36:25.382Z,21.65
2017-12-03T17:38:53.531Z,22.85
2017-12-03T17:41:23.307Z,24.40
2017-12-03T17:43:51.626Z,26.65
2017-12-03T17:46:29.540Z,25.27
2017-12-03T17:52:02.578Z,20.17
2017-12-03T17:54:30.740Z,21.23
2017-12-03T17:56:58.928Z,23.20
2017-12-03T17:59:27.088Z,22.85
2017-12-03T18:01:55.361Z,24.17
2017-12-03T18:04:23.738Z,22.65
2017-12-03T18:06:51.907Z,25.08
2017-12-03T18:09:20.098Z,25.25
2017-12-03T18:11:48.283Z,23.30
2017-12-03T18:14:16.434Z,24.02
2017-12-03T18:16:44.690Z,22.42
2017-12-03T18:19:12.875Z,22.08
2017-12-03T18:21:41.033Z,20.95
2017-12-03T18:24:09.437Z,20.60
2017-12-03T18:26:37.558Z,22.00
2017-12-03T18:29:06.538Z,21.85
2017-12-03T18:34:11.707Z,23.10
2017-12-03T18:36:39.865Z,20.45
2017-12-03T18:39:08.027Z,19.80
2017-12-03T18:41:36.222Z,20.00
2017-12-03T18:44:06.002Z,19.87
2017-12-03T18:46:34.856Z,20.02
2017-12-03T18:49:02.985Z,20.60
2017-12-03T18:51:31.150Z,20.90
2017-12-03T18:53:59.322Z,20.10
2017-12-03T18:56:27.482Z,21.05
2017-12-03T18:58:56.549Z,20.73
2017-12-03T19:01:24.782Z,21.73
2017-12-03T19:03:52.926Z,23.48
2017-12-03T19:06:21.079Z,24.27
2017-12-03T19:08:49.242Z,24.52
2017-12-03T19:11:17.455Z,24.23
2017-12-03T19:13:45.624Z,24.95
2017-12-03T19:16:13.798Z,20.70
2017-12-03T19:18:42.146Z,19.87
2017-12-03T19:21:10.284Z,21.45
2017-12-03T19:23:39.239Z,18.05
2017-12-03T19:26:07.381Z,19.92
2017-12-03T19:28:35.530Z,19.12
2017-12-03T19:31:04.523Z,19.25
2017-12-03T19:33:32.678Z,19.87
2017-12-03T19:36:01.605Z,20.00
2017-12-03T19:38:29.948Z,19.83
2017-12-03T19:40:58.121Z,19.98
2017-12-03T19:43:27.071Z,17.80
2017-12-03T19:45:55.226Z,17.37
2017-12-03T19:48:23.377Z,17.87
2017-12-03T19:50:51.696Z,19.00
2017-12-03T19:53:19.836Z,17.58
2017-12-03T19:55:48.268Z,18.20
2017-12-03T19:58:16.433Z,19.30
2017-12-03T20:00:44.600Z,18.00
2017-12-03T20:03:12.775Z,18.60
2017-12-03T20:05:40.933Z,19.45
2017-12-03T20:08:09.288Z,19.48
2017-12-03T20:10:38.176Z,18.12
2017-12-03T20:13:06.347Z,17.70
2017-12-03T20:15:34.506Z,18.25
2017-12-03T20:18:03.478Z,18.75
2017-12-03T20:20:31.683Z,18.65
2017-12-03T20:22:59.824Z,17.70
2017-12-03T20:25:28.129Z,18.10
2017-12-03T20:27:56.282Z,18.05
2017-12-03T20:30:24.460Z,18.75
2017-12-03T20:32:53.410Z,18.15
2017-12-03T20:35:21.570Z,18.40
2017-12-03T20:37:49.749Z,17.95
2017-12-03T20:40:17.892Z,18.35
2017-12-03T20:42:46.039Z,18.05
2017-12-03T20:45:14.349Z,17.90
2017-12-03T20:47:43.274Z,19.58
2017-12-03T20:50:11.475Z,18.52
2017-12-03T20:52:39.640Z,19.98
2017-12-03T20:55:07.810Z,18.92
2017-12-03T20:57:35.963Z,19.85
2017-12-03T21:00:04.261Z,17.70
2017-12-03T21:02:32.450Z,18.70
2017-12-03T21:05:00.632Z,19.27
2017-12-03T21:07:28.777Z,18.48
2017-12-03T21:09:56.904Z,20.42
2017-12-03T21:12:25.095Z,19.55
2017-12-03T21:14:54.022Z,19.20
2017-12-03T21:17:22.216Z,19.58
2017-12-03T21:19:50.521Z,18.10
2017-12-03T21:22:18.668Z,18.62
2017-12-03T21:24:47.576Z,19.80
2017-12-03T21:27:16.529Z,20.27
2017-12-03T21:29:44.912Z,20.15
2017-12-03T21:32:13.102Z,20.62
2017-12-03T21:34:42.233Z,19.52
2017-12-03T21:37:10.558Z,20.85
2017-12-03T21:39:38.777Z,19.80
2017-12-03T21:42:07.722Z,21.35
2017-12-03T21:44:35.898Z,20.48
2017-12-03T21:47:04.042Z,21.08
2017-12-03T21:49:32.250Z,19.67
2017-12-03T21:52:00.418Z,20.10
2017-12-03T21:54:28.551Z,20.27
2017-12-03T21:56:56.765Z,20.23
2017-12-03T21:59:24.949Z,19.58
2017-12-03T22:01:53.106Z,19.40
2017-12-03T22:04:21.295Z,18.58
2017-12-03T22:06:49.459Z,18.87
2017-12-03T22:09:17.609Z,19.50
2017-12-03T22:11:45.760Z,21.00
2017-12-03T22:14:13.910Z,21.42
2017-12-03T22:16:42.884Z,20.20
2017-12-03T22:19:11.835Z,20.50
2017-12-03T22:21:39.967Z,21.35
2017-12-03T22:24:08.107Z,23.23
2017-12-03T22:26:36.287Z,22.73
2017-12-03T22:29:04.596Z,22.92
2017-12-03T22:31:33.541Z,22.40
2017-12-03T22:34:01.681Z,22.52
2017-12-03T22:36:29.822Z,21.70
2017-12-03T22:38:58.752Z,21.62
2017-12-03T22:41:26.884Z,21.17
2017-12-03T22:43:55.834Z,23.20
2017-12-03T22:46:23.984Z,22.98
2017-12-03T22:48:52.147Z,22.35
2017-12-03T22:51:20.423Z,22.35
2017-12-03T22:53:49.379Z,22.20
2017-12-03T22:56:17.572Z,21.70
2017-12-03T22:58:46.480Z,22.77
2017-12-03T23:01:14.624Z,22.52
2017-12-03T23:03:43.809Z,23.92
2017-12-03T23:06:12.336Z,23.62
2017-12-03T23:08:40.645Z,24.55
2017-12-03T23:11:08.779Z,23.55
2017-12-03T23:13:36.956Z,24.20
2017-12-03T23:16:05.112Z,22.33
2017-12-03T23:18:34.044Z,23.15
2017-12-03T23:21:02.452Z,21.20
2017-12-03T23:23:30.596Z,22.87
2017-12-03T23:25:58.902Z,21.60
2017-12-03T23:28:27.041Z,22.40
2017-12-03T23:30:55.185Z,21.75
2017-12-03T23:33:23.348Z,22.48
2017-12-03T23:35:52.256Z,21.00
2017-12-03T23:38:20.432Z,23.48
2017-12-03T23:40:48.606Z,21.83
2017-12-03T23:43:17.509Z,23.33
2017-12-03T23:45:45.795Z,23.05
2017-12-03T23:48:13.938Z,22.92
2017-12-03T23:50:42.107Z,20.90
2017-12-03T23:53:10.235Z,21.80
2017-12-03T23:55:39.147Z,24.12
2017-12-03T23:58:07.276Z,23.20
